createdAt,value
2023-04-15T00:00:07.148Z,0.00
2023-04-15T00:01:02.328Z,0.00
2023-04-15T00:01:57.758Z,0.00
2023-04-15T00:02:52.849Z,0.00
2023-04-15T00:03:47.998Z,0.00
2023-04-15T00:04:43.065Z,0.00
2023-04-15T00:05:39.182Z,0.00
2023-04-15T00:06:34.364Z,0.00
2023-04-15T00:07:29.591Z,0.00
2023-04-15T00:08:24.961Z,0.00
2023-04-15T00:09:19.904Z,0.00
2023-04-15T00:10:15.115Z,0.00
2023-04-15T00:11:13.137Z,0.00
2023-04-15T00:12:08.194Z,0.00
2023-04-15T00:13:07.259Z,0.00
2023-04-15T00:14:02.457Z,0.00
2023-04-15T00:14:57.507Z,0.00
2023-04-15T00:15:52.714Z,0.00
2023-04-15T00:16:48.010Z,0.00
2023-04-15T00:17:43.094Z,0.00
2023-04-15T00:18:38.430Z,0.00
2023-04-15T00:19:33.634Z,0.00
2023-04-15T00:20:28.710Z,0.00
2023-04-15T00:21:24.666Z,0.00
2023-04-15T00:22:19.712Z,0.00
2023-04-15T00:23:15.614Z,0.00
2023-04-15T00:24:10.828Z,0.00
2023-04-15T00:25:06.055Z,0.00
2023-04-15T00:26:01.822Z,0.00
2023-04-15T00:26:56.965Z,0.00
2023-04-15T00:27:52.134Z,0.00
2023-04-15T00:28:48.461Z,0.00
2023-04-15T00:29:43.702Z,0.00
2023-04-15T00:30:39.565Z,0.00
2023-04-15T00:31:34.616Z,0.00
2023-04-15T00:32:29.814Z,0.00
2023-04-15T00:33:25.575Z,0.00
2023-04-15T00:34:21.014Z,0.00
2023-04-15T00:35:16.729Z,0.00
2023-04-15T00:36:11.844Z,0.00
2023-04-15T00:37:07.137Z,0.00
2023-04-15T00:38:03.066Z,0.00
2023-04-15T00:38:58.701Z,0.00
2023-04-15T00:39:53.628Z,0.00
2023-04-15T00:40:50.226Z,0.00
2023-04-15T00:41:45.416Z,0.00
2023-04-15T00:42:41.248Z,0.00
2023-04-15T00:43:36.421Z,0.00
2023-04-15T00:44:31.785Z,0.00
2023-04-15T00:45:27.414Z,0.00
2023-04-15T00:46:22.635Z,0.00
2023-04-15T00:47:18.447Z,0.00
2023-04-15T00:48:13.611Z,0.00
2023-04-15T00:49:09.619Z,0.00
2023-04-15T00:50:04.556Z,0.00
2023-04-15T00:50:59.754Z,0.00
2023-04-15T00:51:54.929Z,0.00
2023-04-15T00:52:51.381Z,0.00
2023-04-15T00:53:46.584Z,0.00
2023-04-15T00:54:42.512Z,0.00
2023-04-15T00:55:37.661Z,0.00
2023-04-15T00:56:33.017Z,0.00
2023-04-15T00:57:28.745Z,0.00
2023-04-15T00:58:23.984Z,0.00
2023-04-15T00:59:19.723Z,0.00
2023-04-15T01:00:14.916Z,0.00
2023-04-15T01:01:10.154Z,0.00
2023-04-15T01:02:05.927Z,0.00
2023-04-15T01:03:01.144Z,0.00
2023-04-15T01:03:56.373Z,0.00
2023-04-15T01:04:52.569Z,0.00
2023-04-15T01:05:47.774Z,0.00
2023-04-15T01:06:43.495Z,0.00
2023-04-15T01:07:38.683Z,0.00
2023-04-15T01:08:33.857Z,0.00
2023-04-15T01:09:29.921Z,0.00
2023-04-15T01:10:25.028Z,0.00
2023-04-15T01:11:20.899Z,0.00
2023-04-15T01:12:15.939Z,0.00
2023-04-15T01:13:11.295Z,0.00
2023-04-15T01:14:07.059Z,0.00
2023-04-15T01:15:02.335Z,0.00
2023-04-15T01:15:57.515Z,0.00
2023-04-15T01:16:53.833Z,0.00
2023-04-15T01:17:49.036Z,0.00
2023-04-15T01:18:44.911Z,0.00
2023-04-15T01:19:40.084Z,0.00
2023-04-15T01:20:35.439Z,0.00
2023-04-15T01:21:30.444Z,0.00
2023-04-15T01:22:25.618Z,0.00
2023-04-15T01:23:20.663Z,0.00
2023-04-15T01:24:15.705Z,0.00
2023-04-15T01:25:10.755Z,0.00
2023-04-15T01:26:05.820Z,0.00
2023-04-15T01:27:00.875Z,0.00
2023-04-15T01:27:55.985Z,0.00
2023-04-15T01:28:51.005Z,0.00
2023-04-15T01:29:46.081Z,0.00
2023-04-15T01:30:46.193Z,0.00
2023-04-15T01:31:41.273Z,0.00
2023-04-15T01:32:36.411Z,0.00
2023-04-15T01:33:31.478Z,0.00
2023-04-15T01:34:26.475Z,0.00
2023-04-15T01:35:21.581Z,0.00
2023-04-15T01:36:16.502Z,0.00
2023-04-15T01:37:11.619Z,0.00
2023-04-15T01:38:06.801Z,0.00
2023-04-15T01:39:02.204Z,0.00
2023-04-15T01:39:57.068Z,0.00
2023-04-15T01:40:52.303Z,0.00
2023-04-15T01:41:47.167Z,0.00
2023-04-15T01:42:42.227Z,0.00
2023-04-15T01:43:37.294Z,0.00
2023-04-15T01:44:32.338Z,0.00
2023-04-15T01:45:27.365Z,0.00
2023-04-15T01:46:22.553Z,0.00
2023-04-15T01:47:17.520Z,0.00
2023-04-15T01:48:12.602Z,0.00
2023-04-15T01:49:07.635Z,0.00
2023-04-15T01:50:02.669Z,0.00
2023-04-15T01:50:57.723Z,0.00
2023-04-15T01:51:52.764Z,0.00
2023-04-15T01:52:47.772Z,0.00
2023-04-15T01:53:42.806Z,0.00
2023-04-15T01:54:37.850Z,0.00
2023-04-15T01:55:32.895Z,0.00
2023-04-15T01:56:27.947Z,0.00
2023-04-15T01:57:23.550Z,0.00
2023-04-15T01:58:18.555Z,0.00
2023-04-15T01:59:13.720Z,0.00
2023-04-15T02:00:08.760Z,0.00
2023-04-15T02:01:04.016Z,0.00
2023-04-15T02:01:59.030Z,0.00
2023-04-15T02:02:54.042Z,0.00
2023-04-15T02:03:49.249Z,0.00
2023-04-15T02:04:44.110Z,0.00
2023-04-15T02:05:39.431Z,0.00
2023-04-15T02:06:34.305Z,0.00
2023-04-15T02:07:29.535Z,0.00
2023-04-15T02:08:30.263Z,0.00
2023-04-15T02:09:25.419Z,0.00
2023-04-15T02:10:20.739Z,0.00
2023-04-15T02:11:16.548Z,0.00
2023-04-15T02:12:11.720Z,0.00
2023-04-15T02:13:06.923Z,0.00
2023-04-15T02:14:03.038Z,0.00
2023-04-15T02:14:58.241Z,0.00
2023-04-15T02:15:54.013Z,0.00
2023-04-15T02:16:49.254Z,0.00
2023-04-15T02:17:44.248Z,0.00
2023-04-15T02:18:40.142Z,0.00
2023-04-15T02:19:35.332Z,0.00
2023-04-15T02:20:31.216Z,0.00
2023-04-15T02:21:26.367Z,0.00
2023-04-15T02:22:21.608Z,0.00
2023-04-15T02:23:17.312Z,0.00
2023-04-15T02:24:12.585Z,0.00
2023-04-15T02:25:07.684Z,0.00
2023-04-15T02:26:04.141Z,0.00
2023-04-15T02:26:59.202Z,0.00
2023-04-15T02:27:55.085Z,0.00
2023-04-15T02:28:50.242Z,0.00
2023-04-15T02:29:45.457Z,0.00
2023-04-15T02:30:41.193Z,0.00
2023-04-15T02:31:36.444Z,0.00
2023-04-15T02:32:32.296Z,0.00
2023-04-15T02:33:27.323Z,0.00
2023-04-15T02:34:22.637Z,0.00
2023-04-15T02:35:18.570Z,0.00
2023-04-15T02:36:13.760Z,0.00
2023-04-15T02:37:09.071Z,0.00
2023-04-15T02:38:05.082Z,0.00
2023-04-15T02:39:00.519Z,0.00
2023-04-15T02:39:56.077Z,0.00
2023-04-15T02:40:51.424Z,0.00
2023-04-15T02:41:46.602Z,0.00
2023-04-15T02:42:42.368Z,0.00
2023-04-15T02:43:37.534Z,0.00
2023-04-15T02:44:33.445Z,0.00
2023-04-15T02:45:28.568Z,0.00
2023-04-15T02:46:24.005Z,0.00
2023-04-15T02:47:19.545Z,0.00
2023-04-15T02:48:14.748Z,0.00
2023-04-15T02:49:09.905Z,0.00
2023-04-15T02:50:06.303Z,0.00
2023-04-15T02:51:01.697Z,0.00
2023-04-15T02:51:57.349Z,0.00
2023-04-15T02:52:52.485Z,0.00
2023-04-15T02:53:47.723Z,0.00
2023-04-15T02:54:43.445Z,0.00
2023-04-15T02:55:38.674Z,0.00
2023-04-15T02:56:34.411Z,0.00
2023-04-15T02:57:29.601Z,0.00
2023-04-15T02:58:24.787Z,0.00
2023-04-15T02:59:20.673Z,0.00
2023-04-15T03:00:15.868Z,0.00
2023-04-15T03:01:11.248Z,0.00
2023-04-15T03:02:07.537Z,0.00
2023-04-15T03:03:02.907Z,0.00
2023-04-15T03:03:58.661Z,0.00
2023-04-15T03:04:53.786Z,0.00
2023-04-15T03:05:48.962Z,0.00
2023-04-15T03:06:44.739Z,0.00
2023-04-15T03:07:39.920Z,0.00
2023-04-15T03:08:35.050Z,0.00
2023-04-15T03:09:30.237Z,0.00
2023-04-15T03:10:26.126Z,0.00
2023-04-15T03:11:21.464Z,0.00
2023-04-15T03:12:16.508Z,0.00
2023-04-15T03:13:12.913Z,0.00
2023-04-15T03:14:08.128Z,0.00
2023-04-15T03:15:03.855Z,0.00
2023-04-15T03:15:59.243Z,0.00
2023-04-15T03:16:54.089Z,0.00
2023-04-15T03:17:49.898Z,0.00
2023-04-15T03:18:44.969Z,0.00
2023-04-15T03:19:40.716Z,0.00
2023-04-15T03:20:35.880Z,0.00
2023-04-15T03:21:31.159Z,0.00
2023-04-15T03:22:26.872Z,0.00
2023-04-15T03:23:22.115Z,0.00
2023-04-15T03:24:17.264Z,0.00
2023-04-15T03:25:13.573Z,0.00
2023-04-15T03:26:08.732Z,0.00
2023-04-15T03:27:03.907Z,0.00
2023-04-15T03:27:59.094Z,0.00
2023-04-15T03:28:54.277Z,0.00
2023-04-15T03:29:49.455Z,0.00
2023-04-15T03:30:45.370Z,0.00
2023-04-15T03:31:40.577Z,0.00
2023-04-15T03:32:35.973Z,0.00
2023-04-15T03:33:30.959Z,0.00
2023-04-15T03:34:27.438Z,0.00
2023-04-15T03:35:22.586Z,0.00
2023-04-15T03:36:17.639Z,0.00
2023-04-15T03:37:16.966Z,0.00
2023-04-15T03:38:12.170Z,0.00
2023-04-15T03:39:07.361Z,0.00
2023-04-15T03:40:02.683Z,0.00
2023-04-15T03:40:57.695Z,0.00
2023-04-15T03:41:52.909Z,0.00
2023-04-15T03:42:49.020Z,0.00
2023-04-15T03:43:44.330Z,0.00
2023-04-15T03:44:39.381Z,0.00
2023-04-15T03:45:34.580Z,0.00
2023-04-15T03:46:29.674Z,0.00
2023-04-15T03:47:24.826Z,0.00
2023-04-15T03:48:21.265Z,0.00
2023-04-15T03:49:16.482Z,0.00
2023-04-15T03:50:11.708Z,0.00
2023-04-15T03:51:06.802Z,0.00
2023-04-15T03:52:01.983Z,0.00
2023-04-15T03:52:57.154Z,0.00
2023-04-15T03:53:52.306Z,0.00
2023-04-15T03:54:47.488Z,0.00
2023-04-15T03:55:42.647Z,1.00
2023-04-15T03:56:37.978Z,1.00
2023-04-15T03:57:32.993Z,1.00
2023-04-15T03:58:28.158Z,1.00
2023-04-15T03:59:23.322Z,1.00
2023-04-15T04:00:18.688Z,1.00
2023-04-15T04:01:13.853Z,2.00
2023-04-15T04:02:09.119Z,1.00
2023-04-15T04:03:04.438Z,2.00
2023-04-15T04:03:59.482Z,2.00
2023-04-15T04:04:54.484Z,2.00
2023-04-15T04:05:49.667Z,2.00
2023-04-15T04:06:44.850Z,3.00
2023-04-15T04:07:40.014Z,4.00
2023-04-15T04:08:35.301Z,5.00
2023-04-15T04:09:30.362Z,6.00
2023-04-15T04:10:25.428Z,6.00
2023-04-15T04:11:20.637Z,7.00
2023-04-15T04:12:15.784Z,9.00
2023-04-15T04:13:11.147Z,11.00
2023-04-15T04:14:08.263Z,12.00
2023-04-15T04:15:03.492Z,14.00
2023-04-15T04:15:59.000Z,17.00
2023-04-15T04:16:54.059Z,19.00
2023-04-15T04:17:49.297Z,21.00
2023-04-15T04:18:44.520Z,26.00
2023-04-15T04:19:39.492Z,31.00
2023-04-15T04:20:34.585Z,35.00
2023-04-15T04:21:29.724Z,40.00
2023-04-15T04:22:24.812Z,45.00
2023-04-15T04:23:19.805Z,48.00
2023-04-15T04:24:14.887Z,53.00
2023-04-15T04:25:09.956Z,64.00
2023-04-15T04:26:05.688Z,70.00
2023-04-15T04:27:00.620Z,80.00
2023-04-15T04:27:55.704Z,89.00
2023-04-15T04:28:50.677Z,98.00
2023-04-15T04:29:45.931Z,104.00
2023-04-15T04:30:41.213Z,119.00
2023-04-15T04:31:36.445Z,128.00
2023-04-15T04:32:31.514Z,144.00
2023-04-15T04:33:26.578Z,155.00
2023-04-15T04:34:21.559Z,171.00
2023-04-15T04:35:16.654Z,189.00
2023-04-15T04:36:11.734Z,198.00
2023-04-15T04:37:06.791Z,215.00
2023-04-15T04:39:27.565Z,269.00
2023-04-15T04:40:22.691Z,281.00
2023-04-15T04:41:18.000Z,308.00
2023-04-15T04:42:13.135Z,304.00
2023-04-15T04:43:08.400Z,348.00
2023-04-15T04:44:03.644Z,364.00
2023-04-15T04:44:58.926Z,388.00
2023-04-15T04:45:54.220Z,406.00
2023-04-15T04:46:49.697Z,411.00
2023-04-15T04:47:44.728Z,455.00
2023-04-15T04:48:39.985Z,473.00
2023-04-15T04:49:35.265Z,487.00
2023-04-15T04:50:30.469Z,521.00
2023-04-15T04:51:25.556Z,546.00
2023-04-15T04:52:20.865Z,578.00
2023-04-15T04:53:16.123Z,598.00
2023-04-15T04:54:11.403Z,640.00
2023-04-15T04:55:06.670Z,663.00
2023-04-15T04:56:02.102Z,681.00
2023-04-15T04:56:57.086Z,725.00
2023-04-15T04:57:52.380Z,784.00
2023-04-15T04:58:47.624Z,806.00
2023-04-15T04:59:43.037Z,867.00
2023-04-15T05:00:38.208Z,882.00
2023-04-15T05:01:33.602Z,889.00
2023-04-15T05:02:28.820Z,938.00
2023-04-15T05:03:24.146Z,948.00
2023-04-15T05:04:19.173Z,1004.00
2023-04-15T05:05:14.454Z,980.00
2023-04-15T05:06:09.836Z,976.00
2023-04-15T05:07:05.000Z,1019.00
2023-04-15T05:08:00.209Z,1031.00
2023-04-15T05:08:55.520Z,1054.00
2023-04-15T05:09:50.976Z,1030.00
2023-04-15T05:10:46.219Z,1041.00
2023-04-15T05:11:41.381Z,1069.00
2023-04-15T05:12:36.734Z,1068.00
2023-04-15T05:13:32.071Z,1139.00
2023-04-15T05:14:27.379Z,1157.00
2023-04-15T05:15:22.590Z,1156.00
2023-04-15T05:16:18.009Z,1184.00
2023-04-15T05:17:13.139Z,1183.00
2023-04-15T05:18:08.523Z,1232.00
2023-04-15T05:19:03.894Z,1287.00
2023-04-15T05:19:59.213Z,1243.00
2023-04-15T05:20:54.424Z,1302.00
2023-04-15T05:21:49.751Z,1383.00
2023-04-15T05:22:45.080Z,1428.00
2023-04-15T05:23:40.452Z,1494.00
2023-04-15T05:24:35.749Z,1579.00
2023-04-15T05:25:31.265Z,1650.00
2023-04-15T05:26:26.294Z,1722.00
2023-04-15T05:27:21.652Z,1801.00
2023-04-15T05:28:16.899Z,1907.00
2023-04-15T05:29:12.220Z,1963.00
2023-04-15T05:30:07.661Z,2038.00
2023-04-15T05:31:03.074Z,2137.00
2023-04-15T05:31:58.068Z,2227.00
2023-04-15T05:32:53.471Z,2286.00
2023-04-15T05:33:48.764Z,2273.00
2023-04-15T05:34:44.123Z,2426.00
2023-04-15T05:35:39.335Z,2542.00
2023-04-15T05:36:34.597Z,2707.00
2023-04-15T05:37:29.856Z,2840.00
2023-04-15T05:38:25.145Z,2984.00
2023-04-15T05:39:20.455Z,3076.00
2023-04-15T05:40:15.960Z,3211.00
2023-04-15T05:41:11.030Z,3354.00
2023-04-15T05:42:06.366Z,3463.00
2023-04-15T05:43:01.551Z,3421.00
2023-04-15T05:43:56.887Z,3680.00
2023-04-15T05:44:52.225Z,3761.00
2023-04-15T05:45:47.571Z,3845.00
2023-04-15T05:46:42.961Z,4025.00
2023-04-15T05:47:38.220Z,4235.00
2023-04-15T05:48:33.394Z,4340.00
2023-04-15T05:49:28.727Z,4424.00
2023-04-15T05:50:24.337Z,4496.00
2023-04-15T05:51:19.428Z,4538.00
2023-04-15T05:52:14.769Z,4701.00
2023-04-15T05:53:10.179Z,4726.00
2023-04-15T05:54:05.473Z,4849.00
2023-04-15T05:55:00.845Z,4857.00
2023-04-15T05:55:56.046Z,4777.00
2023-04-15T05:56:51.368Z,4754.00
2023-04-15T05:57:46.696Z,4732.00
2023-04-15T05:58:42.175Z,4688.00
2023-04-15T05:59:37.339Z,4672.00
2023-04-15T06:00:32.841Z,4655.00
2023-04-15T06:01:27.916Z,4686.00
2023-04-15T06:02:23.341Z,4599.00
2023-04-15T06:03:18.567Z,4563.00
2023-04-15T06:04:13.833Z,4435.00
2023-04-15T06:05:09.118Z,4278.00
2023-04-15T06:06:04.298Z,4124.00
2023-04-15T06:06:59.637Z,3999.00
2023-04-15T06:07:54.980Z,3896.00
2023-04-15T06:08:50.230Z,3764.00
2023-04-15T06:09:45.960Z,3587.00
2023-04-15T06:10:41.340Z,3511.00
2023-04-15T06:11:36.421Z,3494.00
2023-04-15T06:12:31.718Z,3440.00
2023-04-15T06:13:27.219Z,3591.00
2023-04-15T06:14:22.543Z,3711.00
2023-04-15T06:15:18.074Z,3881.00
2023-04-15T06:16:13.195Z,4012.00
2023-04-15T06:17:08.555Z,4131.00
2023-04-15T06:18:03.692Z,4196.00
2023-04-15T06:18:59.101Z,4279.00
2023-04-15T06:19:54.443Z,4307.00
2023-04-15T06:20:49.648Z,4447.00
2023-04-15T06:21:45.007Z,4513.00
2023-04-15T06:22:40.374Z,4625.00
2023-04-15T06:23:35.695Z,4704.00
2023-04-15T06:24:30.994Z,4701.00
2023-04-15T06:25:26.493Z,4680.00
2023-04-15T06:26:21.684Z,4598.00
2023-04-15T06:27:17.031Z,4601.00
2023-04-15T06:28:12.246Z,4553.00
2023-04-15T06:29:07.560Z,4591.00
2023-04-15T06:30:02.889Z,4569.00
2023-04-15T06:30:58.252Z,4528.00
2023-04-15T06:31:53.607Z,4496.00
2023-04-15T06:32:49.149Z,4532.00
2023-04-15T06:33:44.182Z,4640.00
2023-04-15T06:34:39.593Z,4656.00
2023-04-15T06:35:34.798Z,4770.00
2023-04-15T06:36:30.169Z,5004.00
2023-04-15T06:37:25.354Z,5284.00
2023-04-15T06:38:20.733Z,5346.00
2023-04-15T06:39:16.029Z,5525.00
2023-04-15T06:40:11.416Z,5790.00
2023-04-15T06:41:07.028Z,6040.00
2023-04-15T06:42:02.393Z,6388.00
2023-04-15T06:42:57.580Z,6514.00
2023-04-15T06:43:52.900Z,6553.00
2023-04-15T06:44:48.218Z,6992.00
2023-04-15T06:45:43.805Z,7328.00
2023-04-15T06:46:38.967Z,7627.00
2023-04-15T06:47:34.356Z,7913.00
2023-04-15T06:48:29.649Z,8142.00
2023-04-15T06:49:24.745Z,8455.00
2023-04-15T06:50:20.119Z,8623.00
2023-04-15T06:51:15.051Z,8704.00
2023-04-15T06:52:10.071Z,8775.00
2023-04-15T06:53:05.204Z,8803.00
2023-04-15T06:54:00.223Z,9243.00
2023-04-15T06:54:55.314Z,9613.00
2023-04-15T06:55:50.398Z,9937.00
2023-04-15T06:56:50.884Z,9943.00
2023-04-15T06:57:46.180Z,10225.00
2023-04-15T06:58:41.474Z,10294.00
2023-04-15T06:59:37.285Z,10572.00
2023-04-15T07:00:32.709Z,10594.00
2023-04-15T07:01:28.010Z,10642.00
2023-04-15T07:02:24.347Z,10702.00
2023-04-15T07:03:19.650Z,10586.00
2023-04-15T07:04:15.479Z,10654.00
2023-04-15T07:05:10.748Z,10855.00
2023-04-15T07:06:06.019Z,11042.00
2023-04-15T07:07:01.721Z,11217.00
2023-04-15T07:07:57.231Z,11352.00
2023-04-15T07:08:52.979Z,11491.00
2023-04-15T07:09:48.264Z,11584.00
2023-04-15T07:10:43.811Z,11842.00
2023-04-15T07:11:39.530Z,11917.00
2023-04-15T07:12:34.930Z,12022.00
2023-04-15T07:13:30.447Z,12094.00
2023-04-15T07:14:26.541Z,12185.00
2023-04-15T07:15:22.134Z,12530.00
2023-04-15T07:16:17.850Z,12713.00
2023-04-15T07:17:13.437Z,13082.00
2023-04-15T07:18:08.824Z,13273.00
2023-04-15T07:19:04.717Z,13609.00
2023-04-15T07:19:59.896Z,14325.00
2023-04-15T07:20:55.762Z,15008.00
2023-04-15T07:21:51.013Z,15734.00
2023-04-15T07:22:46.559Z,17032.00
2023-04-15T07:23:42.182Z,18536.00
2023-04-15T07:24:37.401Z,18856.00
2023-04-15T07:25:32.841Z,20744.00
2023-04-15T07:26:29.108Z,21136.00
2023-04-15T07:27:24.404Z,20864.00
2023-04-15T07:28:20.230Z,20720.00
2023-04-15T07:29:15.463Z,30744.00
2023-04-15T07:30:10.934Z,38440.00
2023-04-15T07:31:06.673Z,40576.00
2023-04-15T07:32:01.997Z,37392.00
2023-04-15T07:32:57.759Z,38768.00
2023-04-15T07:33:53.083Z,43120.00
2023-04-15T07:34:48.352Z,42240.00
2023-04-15T07:35:44.199Z,41040.00
2023-04-15T07:36:39.499Z,37464.00
2023-04-15T07:37:34.898Z,35464.00
2023-04-15T07:38:31.145Z,31656.00
2023-04-15T07:39:26.541Z,35560.00
2023-04-15T07:40:22.370Z,34872.00
2023-04-15T07:41:17.657Z,33968.00
2023-04-15T07:42:12.899Z,31864.00
2023-04-15T07:43:08.775Z,31960.00
2023-04-15T07:44:04.178Z,32200.00
2023-04-15T07:45:00.360Z,37504.00
2023-04-15T07:45:55.380Z,37512.00
2023-04-15T07:46:50.792Z,39360.00
2023-04-15T07:47:46.557Z,38096.00
2023-04-15T07:48:41.836Z,34344.00
2023-04-15T07:49:37.213Z,29496.00
2023-04-15T07:50:33.489Z,29592.00
2023-04-15T07:51:28.726Z,30592.00
2023-04-15T07:52:24.604Z,29816.00
2023-04-15T07:53:19.816Z,33360.00
2023-04-15T07:54:15.367Z,35752.00
2023-04-15T07:55:11.113Z,37752.00
2023-04-15T07:56:06.387Z,31952.00
2023-04-15T07:57:01.653Z,31664.00
2023-04-15T07:57:57.076Z,31960.00
2023-04-15T07:58:52.878Z,32264.00
2023-04-15T07:59:48.614Z,37984.00
2023-04-15T08:00:43.590Z,33688.00
2023-04-15T08:01:40.227Z,25384.00
2023-04-15T08:02:37.492Z,22944.00
2023-04-15T08:03:31.548Z,28624.00
2023-04-15T08:04:27.021Z,44024.00
2023-04-15T08:05:22.419Z,39736.00
2023-04-15T08:06:17.976Z,28264.00
2023-04-15T08:07:13.448Z,26600.00
2023-04-15T08:08:09.189Z,31408.00
2023-04-15T08:09:04.850Z,32400.00
2023-04-15T08:10:00.182Z,35952.00
2023-04-15T08:10:55.796Z,37752.00
2023-04-15T08:11:51.081Z,30544.00
2023-04-15T08:12:46.471Z,30296.00
2023-04-15T08:13:42.724Z,28224.00
2023-04-15T08:14:38.368Z,27352.00
2023-04-15T08:15:33.564Z,32728.00
2023-04-15T08:16:29.081Z,43032.00
2023-04-15T08:17:24.539Z,39080.00
2023-04-15T08:18:19.621Z,36944.00
2023-04-15T08:19:14.630Z,38096.00
2023-04-15T08:20:09.744Z,37344.00
2023-04-15T08:21:04.781Z,39864.00
2023-04-15T08:21:59.993Z,42296.00
2023-04-15T08:22:55.060Z,32160.00
2023-04-15T08:23:50.125Z,30512.00
2023-04-15T08:24:45.224Z,22160.00
2023-04-15T08:25:42.565Z,17360.00
2023-04-15T08:26:37.605Z,18640.00
2023-04-15T08:27:32.698Z,18904.00
2023-04-15T08:28:27.752Z,19744.00
2023-04-15T08:29:22.873Z,23952.00
2023-04-15T08:30:17.799Z,21992.00
2023-04-15T08:31:13.023Z,25640.00
2023-04-15T08:32:08.268Z,36440.00
2023-04-15T08:33:03.367Z,30872.00
2023-04-15T08:33:58.393Z,26680.00
2023-04-15T08:34:53.671Z,21816.00
2023-04-15T08:35:48.557Z,21272.00
2023-04-15T08:36:43.632Z,20056.00
2023-04-15T08:37:38.689Z,20720.00
2023-04-15T08:38:33.760Z,20048.00
2023-04-15T08:39:28.949Z,19008.00
2023-04-15T08:40:24.005Z,17408.00
2023-04-15T08:41:19.028Z,17256.00
2023-04-15T08:42:15.608Z,16528.00
2023-04-15T08:43:11.038Z,19712.00
2023-04-15T08:44:06.650Z,22280.00
2023-04-15T08:45:01.906Z,24448.00
2023-04-15T08:45:57.388Z,24112.00
2023-04-15T08:46:52.806Z,25904.00
2023-04-15T08:47:48.372Z,27312.00
2023-04-15T08:48:43.509Z,29096.00
2023-04-15T08:49:38.932Z,26032.00
2023-04-15T08:50:34.246Z,43992.00
2023-04-15T08:51:29.795Z,40416.00
2023-04-15T08:52:25.317Z,32576.00
2023-04-15T08:53:20.732Z,27536.00
2023-04-15T08:54:16.123Z,31984.00
2023-04-15T08:55:11.573Z,32200.00
2023-04-15T08:56:06.895Z,30944.00
2023-04-15T08:57:02.519Z,32848.00
2023-04-15T08:58:01.909Z,32320.00
2023-04-15T08:58:57.334Z,36784.00
2023-04-15T08:59:52.661Z,45928.00
2023-04-15T09:00:48.062Z,46496.00
2023-04-15T09:01:43.687Z,54104.00
2023-04-15T09:02:38.784Z,53624.00
2023-04-15T09:03:33.889Z,50048.00
2023-04-15T09:04:29.168Z,40680.00
2023-04-15T09:05:23.933Z,33560.00
2023-04-15T09:06:19.024Z,58888.00
2023-04-15T09:07:14.034Z,56928.00
2023-04-15T09:08:09.300Z,59880.00
2023-04-15T09:09:04.675Z,56824.00
2023-04-15T09:09:59.478Z,30928.00
2023-04-15T09:10:54.574Z,34040.00
2023-04-15T09:11:49.639Z,39168.00
2023-04-15T09:12:44.800Z,43664.00
2023-04-15T09:13:39.933Z,52976.00
2023-04-15T09:14:34.857Z,46584.00
2023-04-15T09:15:30.083Z,50024.00
2023-04-15T09:16:25.492Z,53472.00
2023-04-15T09:17:20.985Z,38176.00
2023-04-15T09:18:16.327Z,38696.00
2023-04-15T09:19:11.678Z,37928.00
2023-04-15T09:20:07.134Z,37968.00
2023-04-15T09:21:03.470Z,35912.00
2023-04-15T09:21:59.218Z,45608.00
2023-04-15T09:22:54.390Z,37528.00
2023-04-15T09:23:49.579Z,36848.00
2023-04-15T09:24:45.055Z,29440.00
2023-04-15T09:25:40.366Z,59800.00
2023-04-15T09:26:35.845Z,53096.00
2023-04-15T09:27:31.178Z,65535.00
2023-04-15T09:28:26.679Z,65535.00
2023-04-15T09:29:21.830Z,55552.00
2023-04-15T09:30:16.930Z,38072.00
2023-04-15T09:31:11.999Z,50928.00
2023-04-15T09:32:07.138Z,44824.00
2023-04-15T09:33:02.354Z,55288.00
2023-04-15T09:33:57.436Z,65535.00
2023-04-15T09:34:52.241Z,60448.00
2023-04-15T09:35:47.644Z,53456.00
2023-04-15T09:36:44.863Z,44296.00
2023-04-15T09:37:39.931Z,45888.00
2023-04-15T09:38:34.988Z,63456.00
2023-04-15T09:39:30.068Z,65535.00
2023-04-15T09:40:25.097Z,57472.00
2023-04-15T09:41:20.195Z,65535.00
2023-04-15T09:42:15.222Z,62888.00
2023-04-15T09:43:10.303Z,61432.00
2023-04-15T09:44:05.424Z,58408.00
2023-04-15T09:45:00.475Z,62464.00
2023-04-15T09:45:55.652Z,49664.00
2023-04-15T09:46:50.593Z,37312.00
2023-04-15T09:47:45.583Z,34544.00
2023-04-15T09:48:40.774Z,30568.00
2023-04-15T09:49:36.114Z,30552.00
2023-04-15T09:50:31.503Z,28944.00
2023-04-15T09:51:27.007Z,30264.00
2023-04-15T09:52:22.433Z,30184.00
2023-04-15T09:53:17.822Z,30816.00
2023-04-15T09:54:13.502Z,29208.00
2023-04-15T09:55:08.817Z,24104.00
2023-04-15T09:56:04.261Z,22576.00
2023-04-15T09:56:59.605Z,28656.00
2023-04-15T09:57:55.110Z,26840.00
2023-04-15T09:58:50.675Z,25560.00
2023-04-15T09:59:46.054Z,23280.00
2023-04-15T10:00:41.403Z,23624.00
2023-04-15T10:01:36.895Z,26912.00
2023-04-15T10:02:32.318Z,27056.00
2023-04-15T10:03:28.055Z,25992.00
2023-04-15T10:04:23.399Z,28408.00
2023-04-15T10:05:18.790Z,32936.00
2023-04-15T10:06:14.283Z,31360.00
2023-04-15T10:07:09.797Z,34520.00
2023-04-15T10:08:05.092Z,29464.00
2023-04-15T10:09:00.170Z,27512.00
2023-04-15T10:09:55.152Z,25992.00
2023-04-15T10:10:50.232Z,28840.00
2023-04-15T10:11:45.236Z,30424.00
2023-04-15T10:12:40.352Z,26096.00
2023-04-15T10:13:35.348Z,26176.00
2023-04-15T10:14:30.562Z,28936.00
2023-04-15T10:15:25.541Z,27848.00
2023-04-15T10:16:20.695Z,29872.00
2023-04-15T10:17:15.597Z,29768.00
2023-04-15T10:18:10.707Z,26592.00
2023-04-15T10:19:05.965Z,25992.00
2023-04-15T10:20:00.780Z,25704.00
2023-04-15T10:20:56.077Z,23144.00
2023-04-15T10:21:51.416Z,22336.00
2023-04-15T10:22:46.816Z,24800.00
2023-04-15T10:23:42.195Z,17272.00
2023-04-15T10:24:37.889Z,15764.00
2023-04-15T10:25:33.213Z,16128.00
2023-04-15T10:26:28.353Z,16704.00
2023-04-15T10:27:23.450Z,18000.00
2023-04-15T10:28:18.536Z,19872.00
2023-04-15T10:29:17.026Z,35368.00
2023-04-15T10:30:12.166Z,23640.00
2023-04-15T10:31:07.193Z,32392.00
2023-04-15T10:32:02.198Z,34808.00
2023-04-15T10:32:57.301Z,26584.00
2023-04-15T10:33:52.494Z,27808.00
2023-04-15T10:34:47.575Z,37952.00
2023-04-15T10:35:42.536Z,46672.00
2023-04-15T10:36:37.550Z,45888.00
2023-04-15T10:37:32.557Z,49344.00
2023-04-15T10:38:27.918Z,50224.00
2023-04-15T10:40:48.039Z,50840.00
2023-04-15T10:41:43.175Z,47592.00
2023-04-15T10:42:40.512Z,46544.00
2023-04-15T10:43:34.196Z,49416.00
2023-04-15T10:44:29.593Z,38176.00
2023-04-15T10:45:25.211Z,34360.00
2023-04-15T10:46:20.596Z,32144.00
2023-04-15T10:47:15.959Z,31784.00
2023-04-15T10:48:11.671Z,33664.00
2023-04-15T10:49:06.785Z,36544.00
2023-04-15T10:50:02.323Z,57840.00
2023-04-15T10:50:57.699Z,65535.00
2023-04-15T10:51:53.034Z,61136.00
2023-04-15T10:52:48.569Z,58592.00
2023-04-15T10:53:43.870Z,65535.00
2023-04-15T10:54:39.282Z,58376.00
2023-04-15T10:55:34.717Z,47296.00
2023-04-15T10:56:30.034Z,58144.00
2023-04-15T10:57:25.455Z,65535.00
2023-04-15T10:58:20.809Z,64760.00
2023-04-15T10:59:16.379Z,65535.00
2023-04-15T11:00:11.770Z,46064.00
2023-04-15T11:01:07.191Z,55040.00
2023-04-15T11:02:02.583Z,40496.00
2023-04-15T11:02:57.999Z,59248.00
2023-04-15T11:03:53.365Z,48640.00
2023-04-15T11:04:48.691Z,48000.00
2023-04-15T11:05:44.113Z,44560.00
2023-04-15T11:06:39.530Z,60920.00
2023-04-15T11:07:34.923Z,44192.00
2023-04-15T11:08:30.490Z,59672.00
2023-04-15T11:09:25.785Z,57128.00
2023-04-15T11:10:21.255Z,29704.00
2023-04-15T11:11:16.617Z,53336.00
2023-04-15T11:12:12.024Z,47752.00
2023-04-15T11:13:07.472Z,43528.00
2023-04-15T11:14:03.035Z,43608.00
2023-04-15T11:14:58.277Z,43872.00
2023-04-15T11:15:53.564Z,44992.00
2023-04-15T11:16:49.032Z,46872.00
2023-04-15T11:17:46.431Z,34336.00
2023-04-15T11:18:39.894Z,36504.00
2023-04-15T11:19:35.518Z,28856.00
2023-04-15T11:20:30.716Z,32152.00
2023-04-15T11:21:26.154Z,33192.00
2023-04-15T11:22:21.577Z,31800.00
2023-04-15T11:23:16.933Z,33752.00
2023-04-15T11:24:12.160Z,39088.00
2023-04-15T11:25:07.597Z,50848.00
2023-04-15T11:26:02.987Z,52784.00
2023-04-15T11:26:58.425Z,54056.00
2023-04-15T11:27:53.816Z,48448.00
2023-04-15T11:28:49.485Z,46776.00
2023-04-15T11:29:44.594Z,48216.00